Time,TemperatureF,DewpointF,PressureIn,WindDirection,WindDirectionDegrees,WindSpeedMPH,WindSpeedGustMPH,Humidity,HourlyPrecipIn,Conditions,Clouds,dailyrainin,SoftwareType,DateUTC
2013-07-30 00:03:00,63.0,61.0,30.18,WNW,298,0.0,0.0,92,0.00,,,0.12,,2013-07-30 04:03:00,
2013-07-30 00:13:00,63.0,61.0,30.18,WNW,298,0.0,0.0,93,0.00,,,0.12,,2013-07-30 04:13:00,
2013-07-30 00:23:00,62.0,60.0,30.18,WNW,298,0.0,0.0,94,0.00,,,0.12,,2013-07-30 04:23:00,
2013-07-30 00:53:00,62.0,61.0,30.19,WNW,298,0.0,0.0,95,0.00,,,0.12,,2013-07-30 04:53:00,
2013-07-30 01:03:00,62.0,61.0,30.19,WNW,298,0.0,0.0,96,0.00,,,0.12,,2013-07-30 05:03:00,
2013-07-30 01:33:00,61.0,60.0,30.18,WNW,298,0.0,0.0,98,0.00,,,0.12,,2013-07-30 05:33:00,
2013-07-30 01:52:00,61.0,60.0,30.18,WNW,298,0.0,0.0,98,0.00,,,0.12,,2013-07-30 05:52:00,
2013-07-30 02:03:00,61.0,60.0,30.18,WNW,298,0.0,0.0,98,0.00,,,0.12,,2013-07-30 06:03:00,
2013-07-30 02:13:00,60.0,60.0,30.18,WNW,298,0.0,0.0,99,0.00,,,0.12,,2013-07-30 06:13:00,
2013-07-30 02:33:00,60.0,60.0,30.18,WNW,298,0.0,0.0,99,0.00,,,0.12,,2013-07-30 06:33:00,
2013-07-30 02:43:00,60.0,60.0,30.18,WNW,298,0.0,0.0,99,0.00,,,0.09,,2013-07-30 06:43:00,
2013-07-30 02:53:00,60.0,60.0,30.18,WNW,298,0.0,0.0,99,0.00,,,0.04,,2013-07-30 06:53:00,
2013-07-30 03:03:00,59.0,59.0,30.19,WNW,298,0.0,0.0,99,0.00,,,0.00,,2013-07-30 07:03:00,
2013-07-30 03:13:00,59.0,59.0,30.18,WNW,298,0.0,0.0,99,0.00,,,0.00,,2013-07-30 07:13:00,
2013-07-30 03:23:00,59.0,59.0,30.19,WNW,298,0.0,0.0,99,0.00,,,0.00,,2013-07-30 07:23:00,
2013-07-30 03:33:00,59.0,59.0,30.19,WNW,298,0.0,0.0,99,0.00,,,0.00,,2013-07-30 07:33:00,
2013-07-30 03:43:00,58.0,58.0,30.19,WNW,298,0.0,0.0,99,0.00,,,0.00,,2013-07-30 07:43:00,
2013-07-30 03:53:00,58.0,58.0,30.19,WNW,298,0.0,0.0,99,0.00,,,0.00,,2013-07-30 07:53:00,
2013-07-30 04:03:00,58.0,58.0,30.19,WNW,298,0.0,0.0,99,0.00,,,0.00,,2013-07-30 08:03:00,
2013-07-30 04:13:00,58.0,58.0,30.19,WNW,298,0.0,0.0,99,0.00,,,0.00,,2013-07-30 08:13:00,
2013-07-30 04:23:00,58.0,58.0,30.19,WNW,298,0.0,0.0,99,0.00,,,0.00,,2013-07-30 08:23:00,
2013-07-30 04:33:00,58.0,58.0,30.19,WNW,298,0.0,0.0,99,0.00,,,0.00,,2013-07-30 08:33:00,
2013-07-30 04:43:00,57.0,57.0,30.19,WNW,298,0.0,0.0,99,0.00,,,0.00,,2013-07-30 08:43:00,
2013-07-30 04:53:00,57.0,57.0,30.19,WNW,298,0.0,0.0,99,0.00,,,0.00,,2013-07-30 08:53:00,
2013-07-30 05:03:00,57.0,57.0,30.19,WNW,298,0.0,0.0,99,0.00,,,0.00,,2013-07-30 09:03:00,
2013-07-30 05:23:00,58.0,58.0,30.19,WNW,298,0.0,0.0,99,0.00,,,0.00,,2013-07-30 09:23:00,
2013-07-30 05:33:00,58.0,58.0,30.19,WNW,298,0.0,0.0,99,0.00,,,0.00,,2013-07-30 09:33:00,
2013-07-30 05:43:00,58.0,58.0,30.19,WNW,298,0.0,0.0,99,0.00,,,0.00,,2013-07-30 09:43:00,
2013-07-30 05:53:00,58.0,58.0,30.19,WNW,298,0.0,0.0,99,0.00,,,0.00,,2013-07-30 09:53:00,
2013-07-30 06:03:00,58.0,58.0,30.18,WNW,298,0.0,0.0,99,0.00,,,0.00,,2013-07-30 10:03:00,
2013-07-30 06:12:00,58.0,58.0,30.18,WNW,298,0.0,0.0,99,0.00,,,0.00,,2013-07-30 10:12:00,
2013-07-30 06:23:00,58.0,58.0,30.19,WNW,298,0.0,0.0,99,0.00,,,0.00,,2013-07-30 10:23:00,
2013-07-30 06:32:00,58.0,58.0,30.18,WNW,298,0.0,0.0,99,0.00,,,0.00,,2013-07-30 10:32:00,
2013-07-30 06:44:00,58.0,58.0,30.19,WNW,298,0.0,0.0,99,0.00,,,0.00,,2013-07-30 10:44:00,
2013-07-30 07:02:00,58.0,58.0,30.20,WNW,298,0.0,0.0,99,0.00,,,0.00,,2013-07-30 11:02:00,
2013-07-30 07:11:00,58.0,58.0,30.21,WNW,298,0.0,0.0,99,0.00,,,0.00,,2013-07-30 11:11:00,
2013-07-30 07:22:00,58.0,58.0,30.20,WNW,298,0.0,0.0,99,0.00,,,0.00,,2013-07-30 11:22:00,
2013-07-30 07:33:00,58.0,58.0,30.20,WNW,298,0.0,0.0,99,0.00,,,0.00,,2013-07-30 11:33:00,
2013-07-30 07:43:00,58.0,58.0,30.20,WNW,298,0.0,0.0,99,0.00,,,0.00,,2013-07-30 11:43:00,
2013-07-30 08:12:00,59.0,59.0,30.19,WNW,298,0.0,0.0,99,0.00,,,0.00,,2013-07-30 12:12:00,
2013-07-30 08:33:00,60.0,60.0,30.20,WNW,298,0.0,0.0,99,0.00,,,0.00,,2013-07-30 12:33:00,
2013-07-30 08:42:00,62.0,62.0,30.20,WNW,298,0.0,0.0,99,0.00,,,0.00,,2013-07-30 12:42:00,
2013-07-30 08:53:00,62.0,62.0,30.20,WNW,298,0.0,0.0,99,0.00,,,0.00,,2013-07-30 12:53:00,
2013-07-30 09:12:00,66.0,64.0,30.20,South,189,1.0,3.0,94,0.00,,,0.00,,2013-07-30 13:12:00,
2013-07-30 09:22:00,67.0,64.0,30.20,SSE,161,0.0,0.0,90,0.00,,,0.00,,2013-07-30 13:22:00,
2013-07-30 09:33:00,69.0,64.0,30.20,SE,126,1.0,6.0,85,0.00,,,0.00,,2013-07-30 13:33:00,
2013-07-30 09:43:00,71.0,64.0,30.21,South,169,0.0,0.0,78,0.00,,,0.00,,2013-07-30 13:43:00,
2013-07-30 10:22:00,72.0,65.0,30.21,SE,133,0.0,0.0,78,0.00,,,0.00,,2013-07-30 14:22:00,
2013-07-30 10:33:00,73.0,65.0,30.20,SE,133,0.0,0.0,75,0.00,,,0.00,,2013-07-30 14:33:00,
2013-07-30 10:53:00,73.0,65.0,30.21,SE,133,0.0,0.0,77,0.00,,,0.00,,2013-07-30 14:53:00,
2013-07-30 11:02:00,73.0,65.0,30.20,SE,133,0.0,0.0,77,0.00,,,0.00,,2013-07-30 15:02:00,
2013-07-30 11:33:00,73.0,65.0,30.20,SE,133,0.0,0.0,76,0.00,,,0.00,,2013-07-30 15:33:00,
2013-07-30 11:43:00,73.0,66.0,30.20,SE,133,0.0,0.0,78,0.00,,,0.00,,2013-07-30 15:43:00,
2013-07-30 12:02:00,73.0,66.0,30.19,SE,133,0.0,0.0,79,0.00,,,0.00,,2013-07-30 16:02:00,
2013-07-30 12:12:00,73.0,66.0,30.19,SE,133,0.0,0.0,78,0.00,,,0.00,,2013-07-30 16:12:00,
2013-07-30 12:23:00,73.0,66.0,30.19,SE,133,0.0,0.0,80,0.00,,,0.00,,2013-07-30 16:23:00,
2013-07-30 12:33:00,73.0,66.0,30.19,SE,133,0.0,0.0,79,0.00,,,0.00,,2013-07-30 16:33:00,
2013-07-30 12:44:00,73.0,66.0,30.19,SE,133,0.0,0.0,80,0.00,,,0.00,,2013-07-30 16:44:00,
2013-07-30 12:52:00,73.0,66.0,30.19,SE,133,0.0,0.0,80,0.00,,,0.00,,2013-07-30 16:52:00,
2013-07-30 13:43:00,73.0,66.0,30.18,South,175,2.0,6.0,79,0.00,,,0.00,,2013-07-30 17:43:00,
2013-07-30 16:22:00,71.0,69.0,30.16,SE,130,0.0,0.0,95,0.02,,,0.02,,2013-07-30 20:22:00,
2013-07-30 16:33:00,71.0,69.0,30.16,SE,130,0.0,0.0,95,0.02,,,0.02,,2013-07-30 20:33:00,
2013-07-30 16:43:00,70.0,69.0,30.15,SSE,167,0.0,0.0,96,0.02,,,0.03,,2013-07-30 20:43:00,
2013-07-30 16:52:00,70.0,69.0,30.15,SSE,167,0.0,0.0,96,0.02,,,0.03,,2013-07-30 20:52:00,
2013-07-30 17:02:00,70.0,69.0,30.14,SSE,167,0.0,0.0,97,0.02,,,0.03,,2013-07-30 21:02:00,
2013-07-30 17:52:00,69.0,69.0,30.14,SSE,150,0.0,0.0,99,0.02,,,0.05,,2013-07-30 21:52:00,
2013-07-30 18:02:00,69.0,69.0,30.14,SSE,150,0.0,0.0,99,0.02,,,0.05,,2013-07-30 22:02:00,
2013-07-30 18:22:00,69.0,69.0,30.13,East,100,0.0,0.0,99,0.01,,,0.05,,2013-07-30 22:22:00,
2013-07-30 18:32:00,69.0,69.0,30.13,ESE,107,0.0,0.0,99,0.01,,,0.05,,2013-07-30 22:32:00,
2013-07-30 18:52:00,69.0,69.0,30.12,ESE,120,0.0,0.0,99,0.01,,,0.06,,2013-07-30 22:52:00,
2013-07-30 19:02:00,69.0,69.0,30.13,ESE,120,0.0,0.0,99,0.01,,,0.06,,2013-07-30 23:02:00,
2013-07-30 19:13:00,69.0,69.0,30.12,ESE,120,0.0,0.0,99,0.01,,,0.06,,2013-07-30 23:13:00,
2013-07-30 19:22:00,69.0,69.0,30.11,SSE,163,5.0,8.0,99,0.01,,,0.06,,2013-07-30 23:22:00,
2013-07-30 19:32:00,69.0,69.0,30.11,ESE,103,0.0,0.0,99,0.00,,,0.06,,2013-07-30 23:32:00,
2013-07-30 19:42:00,69.0,69.0,30.10,ESE,122,1.0,6.0,99,0.00,,,0.06,,2013-07-30 23:42:00,
2013-07-30 19:53:00,68.0,68.0,30.10,SSE,156,1.0,6.0,99,0.00,,,0.06,,2013-07-30 23:53:00,
2013-07-30 20:02:00,68.0,67.0,30.10,ESE,123,0.0,5.0,98,0.00,,,0.06,,2013-07-31 00:02:00,
2013-07-30 20:12:00,68.0,67.0,30.10,SSE,164,3.0,6.0,98,0.00,,,0.06,,2013-07-31 00:12:00,
2013-07-30 20:32:00,68.0,67.0,30.11,SSE,155,2.0,7.0,98,0.00,,,0.06,,2013-07-31 00:32:00,
2013-07-30 20:43:00,68.0,67.0,30.10,SSE,151,0.0,3.0,98,0.01,,,0.07,,2013-07-31 00:43:00,
2013-07-30 20:53:00,68.0,68.0,30.10,East,85,1.0,6.0,99,0.01,,,0.07,,2013-07-31 00:53:00,
2013-07-30 21:02:00,68.0,68.0,30.10,East,95,0.0,0.0,99,0.01,,,0.07,,2013-07-31 01:02:00,
2013-07-30 21:12:00,68.0,68.0,30.10,East,95,0.0,0.0,99,0.01,,,0.07,,2013-07-31 01:12:00,
2013-07-30 21:22:00,67.0,67.0,30.10,East,95,0.0,0.0,99,0.01,,,0.07,,2013-07-31 01:22:00,
2013-07-30 21:32:00,67.0,67.0,30.10,East,95,0.0,0.0,99,0.01,,,0.07,,2013-07-31 01:32:00,
2013-07-30 21:43:00,67.0,67.0,30.10,ENE,66,0.0,0.0,99,0.01,,,0.07,,2013-07-31 01:43:00,
2013-07-30 21:52:00,67.0,67.0,30.10,ENE,66,0.0,0.0,99,0.00,,,0.07,,2013-07-31 01:52:00,
2013-07-30 22:32:00,67.0,67.0,30.10,East,99,0.0,0.0,99,0.01,,,0.08,,2013-07-31 02:32:00,
2013-07-30 23:02:00,67.0,67.0,30.10,East,86,0.0,0.0,99,0.01,,,0.09,,2013-07-31 03:02:00,
2013-07-30 23:12:00,67.0,67.0,30.10,East,86,0.0,0.0,99,0.01,,,0.09,,2013-07-31 03:12:00,
2013-07-30 23:22:00,67.0,67.0,30.10,East,86,0.0,0.0,99,0.01,,,0.09,,2013-07-31 03:22:00,
2013-07-30 23:32:00,67.0,67.0,30.10,East,86,0.0,0.0,99,0.01,,,0.09,,2013-07-31 03:32:00,
2013-07-30 23:42:00,67.0,67.0,30.10,East,86,0.0,0.0,99,0.01,,,0.10,,2013-07-31 03:42:00,
2013-07-30 23:52:00,67.0,67.0,30.10,East,86,0.0,0.0,99,0.01,,,0.10,,2013-07-31 03:52:00,